Terminal Aerodrome Forecast
Issued by NWS Twin Cities, MN

Home | Current Version | Previous Version | Graphics & Text | Print | Product List | Glossary On
Versions: 1 2 3 4 5 6 7 8 9 10 11 12 13 14 15 16 17 18
041
FTUS43 KMPX 181736
TAFSTC
TAF
KSTC 181736Z 1818/1918 15012KT P6SM OVC040
     FM190000 14007KT P6SM SCT008 OVC015
     FM190300 13004KT 6SM BR OVC007
     FM191700 14012G18KT P6SM OVC015=

USA.gov is the U.S. government's official web portal to all federal, state and local government web resources and services.